Información del aeropuerto GMMN

Información de pista
Pista 17L Longitud 12205 ft Anchura 148 ft
Elevación 633 ft Umbral 0 ft Rumbo 164
Pista 35R Longitud 12205 ft Anchura 148 ft
Elevación 656 ft Umbral 0 ft Rumbo 344
Pista 17R Longitud 12205 ft Anchura 148 ft
Elevación 636 ft Umbral 0 ft Rumbo 164
Pista 35L Longitud 12205 ft Anchura 148 ft
Elevación 656 ft Umbral 0 ft Rumbo 344
Frecuencias del aeropuerto
Tipo APP Nombre APP Frecuencia 121.3 MHZ
Tipo ATIS Nombre ATIS Frecuencia 126.4 MHZ
Tipo TWR Nombre TWR Frecuencia 118.5 MHZ
Radioayudas del aeropuerto
Tipo VOR-DME Nombre Casablanca Frecuencia 114000 KHZ
Información meteorológica del aeropuerto y NOTAM
ADDS - METARS form results

(0110 UTC 20 September 2020)
Data provider http://aviationweather.gov/metar/data/
 
METAR text: GMMN 200100Z 04006KT 9999 SCT006 SCT013 20/20 Q1020 NOSIG
Conditions at: GMMN (NOUASSEUR/CASABL, MA) observed 0100 UTC 20 September 2020
Temperature: 20.0°C (68°F)
Dewpoint: 20.0°C (68°F) [RH = 100%]
Pressure (altimeter): 30.12 inches Hg (1020.0 mb)
Winds: from the NE (40 degrees) at 7 MPH (6 knots; 3.1 m/s)
Visibility: 6 or more miles (10+ km)
Ceiling: at least 12,000 feet AGL
Clouds: scattered clouds at 600 feet AGL
scattered clouds at 1300 feet AGL
Weather: no significant weather observed at this time

METAR text: GMMN 200030Z 05005KT 9999 SCT005 SCT013 20/20 Q1020 NOSIG
Conditions at: GMMN (NOUASSEUR/CASABL, MA) observed 0030 UTC 20 September 2020
Temperature: 20.0°C (68°F)
Dewpoint: 20.0°C (68°F) [RH = 100%]
Pressure (altimeter): 30.12 inches Hg (1020.0 mb)
Winds: from the NE (50 degrees) at 6 MPH (5 knots; 2.6 m/s)
Visibility: 6 or more miles (10+ km)
Ceiling: at least 12,000 feet AGL
Clouds: scattered clouds at 500 feet AGL
scattered clouds at 1300 feet AGL
Weather: no significant weather observed at this time

METAR text: GMMN 200012Z 05004KT 9999 BKN005 20/20 Q1020 NOSIG
Conditions at: GMMN (NOUASSEUR/CASABL, MA) observed 0012 UTC 20 September 2020
Temperature: 20.0°C (68°F)
Dewpoint: 20.0°C (68°F) [RH = 100%]
Pressure (altimeter): 30.12 inches Hg (1020.0 mb)
Winds: from the NE (50 degrees) at 5 MPH (4 knots; 2.1 m/s)
Visibility: 6 or more miles (10+ km)
Ceiling: 500 feet AGL
Clouds: broken clouds at 500 feet AGL
Weather: no significant weather observed at this time

Forecast for: GMMN (NOUASSEUR/CASABL, MA)
Text: TAF GMMN 192300Z 2000/2106 04006KT 9999 SCT008
Forecast period: 0000 to 0800 UTC 20 September 2020
Forecast type: FROM: standard forecast or significant change
Winds: from the NE (40 degrees) at 7 MPH (6 knots; 3.1 m/s)
Visibility: 6 or more miles (10+ km)
Ceiling: at least 12,000 feet AGL
Clouds: scattered clouds at 800 feet AGL
Weather: no significant weather forecast for this period
Text: TEMPO 2002/2006 4000 BR BKN004
Forecast period: 0200 to 0600 UTC 20 September 2020
Forecast type: TEMPORARY: The following changes expected for less than half the time period
Visibility: 2.49 miles (4.01 km)
Ceiling: 400 feet AGL
Clouds: broken clouds at 400 feet AGL
Weather: BR  (mist)
Text: BECMG 2008/2010 SCT020
Forecast period: 0800 to 1100 UTC 20 September 2020
Forecast type: BECOMING: Conditions expected to become as follows by 1000 UTC 20 September 2020
Winds: from the NE (40 degrees) at 7 MPH (6 knots; 3.1 m/s)
Visibility: 6 or more miles (10+ km)
Ceiling: at least 12,000 feet AGL
Clouds: scattered clouds at 2000 feet AGL
Weather: no significant weather forecast for this period
Text: BECMG 2011/2013 34012KT CAVOK
Forecast period: 1100 UTC 20 September 2020 to 0600 UTC 21 September 2020
Forecast type: BECOMING: Conditions expected to become as follows by 1300 UTC 20 September 2020
Winds: from the NNW (340 degrees) at 14 MPH (12 knots; 6.2 m/s)
Visibility: 6 or more miles (10+ km)
Ceiling: unknown
Clouds: missing
Weather: NSW  (no significant weather)